Time;durP1;ratioP1;P1;durP2;ratioP2;P2;SDS_P1;SDS_P2;PMS_P1;PMS_P2;Temp;Humidity;BMP_temperature;BMP_pressure;BME280_temperature;BME280_humidity;BME280_pressure;Samples;Min_cycle;Max_cycle;Signal;HPM_P1;HPM_P2
2021/03/04 00:00:17;;;;;;;67.97;48.33;;;8.30;99.90;;;;;;2072518;28;20041;-80
2021/03/04 00:01:18;;;;;;;73.25;49.95;;;8.30;99.90;;;;;;2079197;28;20120;-80
2021/03/04 00:02:18;;;;;;;64.60;47.30;;;8.30;99.90;;;;;;2079701;28;20029;-80
2021/03/04 00:03:19;;;;;;;68.38;47.78;;;8.20;99.90;;;;;;2080028;28;20026;-81
2021/03/04 00:04:20;;;;;;;65.47;47.83;;;8.20;99.90;;;;;;2080271;28;20132;-81
2021/03/04 00:05:20;;;;;;;66.72;48.65;;;8.20;99.90;;;;;;2079895;28;20392;-81
2021/03/04 00:06:21;;;;;;;60.78;44.47;;;8.20;99.90;;;;;;2080238;28;20497;-81
2021/03/04 00:07:22;;;;;;;63.78;47.42;;;8.20;99.90;;;;;;2080863;28;20030;-79
2021/03/04 00:08:22;;;;;;;69.50;50.20;;;8.20;99.90;;;;;;2085995;28;20327;-80
2021/03/04 00:09:23;;;;;;;60.35;44.28;;;8.10;99.90;;;;;;2086112;28;20029;-79
2021/03/04 00:10:24;;;;;;;57.42;42.78;;;8.10;99.90;;;;;;2082002;28;20030;-80
2021/03/04 00:11:25;;;;;;;62.47;46.97;;;8.10;99.90;;;;;;2077938;28;20030;-79
2021/03/04 00:12:26;;;;;;;73.95;51.78;;;8.10;99.90;;;;;;2094675;28;20048;-79
2021/03/04 00:13:26;;;;;;;83.95;58.15;;;8.10;99.90;;;;;;2088023;28;20116;-79
2021/03/04 00:14:28;;;;;;;73.53;52.35;;;8.10;99.90;;;;;;2094224;28;20020;-79
2021/03/04 00:15:31;;;;;;;69.07;49.08;;;8.10;99.90;;;;;;2083945;28;20025;-80
2021/03/04 00:16:32;;;;;;;71.47;50.67;;;8.10;99.90;;;;;;2093648;28;20084;-80
2021/03/04 00:17:33;;;;;;;77.30;53.00;;;8.00;99.90;;;;;;2086019;28;20227;-79
2021/03/04 00:18:33;;;;;;;73.82;50.67;;;8.00;99.90;;;;;;2081584;28;20030;-79
2021/03/04 00:19:34;;;;;;;72.10;51.72;;;8.00;99.90;;;;;;2086079;28;20033;-79
2021/03/04 00:20:35;;;;;;;70.53;50.58;;;8.00;99.90;;;;;;2084757;28;20025;-79
2021/03/04 00:21:35;;;;;;;75.43;53.10;;;8.00;99.90;;;;;;2094363;28;20038;-79
2021/03/04 00:22:36;;;;;;;82.07;56.33;;;8.00;99.90;;;;;;2093539;28;20028;-79
2021/03/04 00:23:37;;;;;;;62.22;46.28;;;8.00;99.90;;;;;;2079438;28;20041;-80
2021/03/04 00:24:37;;;;;;;68.32;49.10;;;8.00;99.90;;;;;;2087173;28;20484;-80
2021/03/04 00:25:38;;;;;;;88.20;59.83;;;8.00;99.90;;;;;;2079811;28;20036;-80
2021/03/04 00:26:38;;;;;;;72.40;52.10;;;7.90;99.90;;;;;;2076440;28;20030;-79
2021/03/04 00:27:40;;;;;;;70.85;50.42;;;8.00;99.90;;;;;;2085596;28;20480;-81
2021/03/04 00:28:40;;;;;;;78.80;53.38;;;7.90;99.90;;;;;;2084488;28;20025;-83
2021/03/04 00:29:41;;;;;;;83.50;56.17;;;7.90;99.90;;;;;;2080553;28;20055;-81
2021/03/04 00:30:42;;;;;;;78.38;52.92;;;7.90;99.90;;;;;;2076636;28;20033;-80
2021/03/04 00:31:42;;;;;;;77.53;56.33;;;7.90;99.90;;;;;;2085013;28;20025;-84
2021/03/04 00:32:44;;;;;;;76.38;56.08;;;7.90;99.90;;;;;;2082242;28;20025;-80
2021/03/04 00:33:45;;;;;;;74.50;54.58;;;7.90;99.90;;;;;;2080029;28;20028;-80
2021/03/04 00:34:46;;;;;;;69.95;48.63;;;7.90;99.90;;;;;;2086982;28;20022;-80
2021/03/04 00:35:46;;;;;;;75.32;55.17;;;7.80;99.90;;;;;;2076797;28;20046;-83
2021/03/04 00:36:47;;;;;;;79.85;56.65;;;7.80;99.90;;;;;;2083710;28;20046;-81
2021/03/04 00:37:48;;;;;;;73.15;52.22;;;7.80;99.90;;;;;;2084859;28;20030;-83
2021/03/04 00:38:49;;;;;;;81.63;57.17;;;7.80;99.90;;;;;;2084730;28;20108;-83
2021/03/04 00:39:50;;;;;;;78.07;57.45;;;7.80;99.90;;;;;;2084830;28;20468;-83
2021/03/04 00:40:51;;;;;;;73.50;54.33;;;7.80;99.90;;;;;;2093433;28;20024;-84
2021/03/04 00:41:52;;;;;;;76.85;55.95;;;7.80;99.90;;;;;;2084937;28;20033;-83
2021/03/04 00:42:53;;;;;;;87.15;58.83;;;7.80;99.90;;;;;;2089695;28;20053;-84
2021/03/04 00:43:53;;;;;;;64.78;46.67;;;7.80;99.90;;;;;;2080928;28;20061;-80
2021/03/04 00:44:54;;;;;;;84.13;56.58;;;7.70;99.90;;;;;;2078405;28;20425;-81
2021/03/04 00:45:54;;;;;;;87.53;59.30;;;7.70;99.90;;;;;;2075357;28;20519;-80
2021/03/04 00:46:55;;;;;;;89.75;61.58;;;7.70;99.90;;;;;;2071539;28;20076;-81
2021/03/04 00:47:56;;;;;;;75.70;53.72;;;7.70;99.90;;;;;;2072938;28;20034;-80
2021/03/04 00:48:57;;;;;;;66.20;49.10;;;7.70;99.90;;;;;;2071998;28;20028;-79
2021/03/04 00:49:57;;;;;;;73.68;53.35;;;7.70;99.90;;;;;;2071142;28;20026;-81
2021/03/04 00:50:58;;;;;;;70.50;50.15;;;7.70;99.90;;;;;;2075110;28;20025;-79
2021/03/04 00:51:58;;;;;;;70.35;49.92;;;7.70;99.90;;;;;;2081784;28;20711;-79
2021/03/04 00:52:59;;;;;;;77.50;54.80;;;7.70;99.90;;;;;;2080726;28;20144;-80
2021/03/04 00:54:00;;;;;;;75.28;52.83;;;7.70;99.90;;;;;;2079249;28;20053;-80
2021/03/04 00:55:01;;;;;;;82.43;55.70;;;7.70;99.90;;;;;;2079886;28;20026;-80
2021/03/04 00:56:01;;;;;;;84.65;57.92;;;7.70;99.90;;;;;;2073474;28;20022;-81
2021/03/04 00:57:02;;;;;;;74.93;51.72;;;7.70;99.90;;;;;;2071591;28;20117;-80
2021/03/04 00:58:03;;;;;;;78.50;55.25;;;7.70;99.90;;;;;;2079352;28;20152;-79
2021/03/04 00:59:04;;;;;;;84.57;59.72;;;7.70;99.90;;;;;;2084369;28;20021;-80
2021/03/04 01:00:07;;;;;;;67.28;49.58;;;7.70;99.90;;;;;;2071180;28;20033;-81
2021/03/04 01:01:08;;;;;;;72.22;53.28;;;7.70;99.90;;;;;;2079496;28;20164;-81
2021/03/04 01:02:08;;;;;;;92.35;61.35;;;7.70;99.90;;;;;;2075128;28;20056;-80
2021/03/04 01:03:09;;;;;;;84.70;61.33;;;7.70;99.90;;;;;;2071650;28;20037;-80
2021/03/04 01:04:10;;;;;;;87.72;60.10;;;7.70;99.90;;;;;;2085405;28;20040;-81
2021/03/04 01:05:11;;;;;;;76.05;53.80;;;7.70;99.90;;;;;;2079513;28;20120;-81
2021/03/04 01:06:14;;;;;;;71.13;50.28;;;7.70;99.90;;;;;;2079533;28;20604;-81
2021/03/04 01:07:14;;;;;;;81.47;56.40;;;7.70;99.90;;;;;;2079958;28;20022;-80
2021/03/04 01:08:15;;;;;;;83.25;60.35;;;7.70;99.90;;;;;;2079505;28;20032;-80
2021/03/04 01:09:16;;;;;;;87.80;61.28;;;7.70;99.90;;;;;;2079788;28;20036;-81
2021/03/04 01:10:21;;;;;;;80.97;58.42;;;7.70;99.90;;;;;;2079508;28;20034;-80
2021/03/04 01:11:21;;;;;;;75.57;55.00;;;7.70;99.90;;;;;;2071863;28;20030;-80
2021/03/04 01:12:22;;;;;;;70.53;49.47;;;7.70;99.90;;;;;;2079754;28;20025;-80
2021/03/04 01:13:24;;;;;;;68.32;51.08;;;7.70;99.90;;;;;;2081249;28;20050;-80
2021/03/04 01:14:25;;;;;;;76.38;56.22;;;7.70;99.90;;;;;;2080254;28;20057;-81
2021/03/04 01:15:25;;;;;;;63.08;46.17;;;7.70;99.90;;;;;;2073603;28;20412;-81
2021/03/04 01:16:26;;;;;;;74.15;51.88;;;7.70;99.90;;;;;;2080759;28;20515;-80
2021/03/04 01:17:27;;;;;;;83.10;58.65;;;7.70;99.90;;;;;;2078994;28;20022;-80
2021/03/04 01:18:28;;;;;;;68.63;50.95;;;7.70;99.90;;;;;;2071411;28;20029;-80
2021/03/04 01:19:28;;;;;;;75.30;52.63;;;7.70;99.90;;;;;;2079770;28;20025;-80
2021/03/04 01:20:29;;;;;;;88.18;61.25;;;7.70;99.90;;;;;;2085880;28;20407;-80
2021/03/04 01:21:30;;;;;;;87.35;63.92;;;7.80;99.90;;;;;;2077784;28;20029;-80
2021/03/04 01:22:30;;;;;;;73.95;50.75;;;7.80;99.90;;;;;;2079550;28;20128;-80
2021/03/04 01:23:31;;;;;;;91.50;62.63;;;7.80;99.90;;;;;;2075930;28;20021;-80
2021/03/04 01:24:32;;;;;;;82.75;60.33;;;7.80;99.90;;;;;;2079856;28;20025;-80
2021/03/04 01:25:33;;;;;;;88.45;62.30;;;7.80;99.90;;;;;;2079574;28;20118;-81
2021/03/04 01:26:35;;;;;;;92.80;65.50;;;7.80;99.90;;;;;;2088030;28;20029;-82
2021/03/04 01:27:36;;;;;;;89.70;63.10;;;7.80;99.90;;;;;;2079677;28;20049;-80
2021/03/04 01:28:37;;;;;;;88.20;62.97;;;7.80;99.90;;;;;;2086928;28;20017;-80
2021/03/04 01:29:37;;;;;;;90.63;63.08;;;7.80;99.90;;;;;;2085494;28;20078;-81
2021/03/04 01:30:38;;;;;;;91.53;63.65;;;7.80;99.90;;;;;;2094015;28;20033;-81
2021/03/04 01:31:40;;;;;;;93.07;63.88;;;7.80;99.90;;;;;;2082596;28;20026;-83
2021/03/04 01:32:42;;;;;;;84.82;63.50;;;7.80;99.90;;;;;;2077031;28;20029;-82
2021/03/04 01:33:42;;;;;;;93.18;67.72;;;7.80;99.90;;;;;;2077272;28;20061;-82
2021/03/04 01:34:43;;;;;;;94.63;66.97;;;7.80;99.90;;;;;;2087398;28;20037;-80
2021/03/04 01:35:44;;;;;;;101.93;67.10;;;7.80;99.90;;;;;;2089243;28;20025;-80
2021/03/04 01:36:45;;;;;;;92.43;66.07;;;7.80;99.90;;;;;;2076971;28;20025;-79
2021/03/04 01:37:46;;;;;;;93.68;67.50;;;7.80;99.90;;;;;;2089484;28;20029;-83
2021/03/04 01:38:47;;;;;;;101.47;69.40;;;7.80;99.90;;;;;;2086929;28;20045;-82
2021/03/04 01:39:47;;;;;;;97.80;67.35;;;7.80;99.90;;;;;;2089759;28;20041;-84
2021/03/04 01:40:48;;;;;;;94.13;68.05;;;7.80;99.90;;;;;;2079125;28;20212;-83
2021/03/04 01:41:50;;;;;;;100.03;67.97;;;7.90;99.90;;;;;;2087025;28;20539;-82
2021/03/04 01:42:52;;;;;;;102.00;70.35;;;7.90;99.90;;;;;;2082940;28;20029;-82
2021/03/04 01:43:52;;;;;;;104.05;72.07;;;7.90;99.90;;;;;;2086011;28;20026;-82
2021/03/04 01:44:53;;;;;;;103.55;71.28;;;7.90;99.90;;;;;;2083613;28;20030;-82
2021/03/04 01:45:54;;;;;;;103.15;72.47;;;7.90;99.90;;;;;;2077099;28;20124;-82
2021/03/04 01:46:55;;;;;;;105.88;71.20;;;7.90;99.90;;;;;;2077365;28;20400;-82
2021/03/04 01:47:56;;;;;;;104.53;70.90;;;7.90;99.90;;;;;;2084468;28;20033;-82
2021/03/04 01:48:57;;;;;;;104.28;70.22;;;7.90;99.90;;;;;;2076581;28;20032;-82
2021/03/04 01:49:58;;;;;;;96.32;68.32;;;8.00;99.90;;;;;;2084295;28;20032;-81
2021/03/04 01:50:58;;;;;;;98.43;69.57;;;7.90;99.90;;;;;;2083280;28;20018;-82
2021/03/04 01:51:59;;;;;;;97.72;69.50;;;8.00;99.90;;;;;;2085897;28;20036;-82
2021/03/04 01:53:00;;;;;;;100.68;69.97;;;8.00;99.90;;;;;;2085368;28;20083;-83
2021/03/04 01:54:01;;;;;;;98.90;69.07;;;8.00;99.90;;;;;;2086668;28;20048;-81
2021/03/04 01:55:04;;;;;;;103.70;70.93;;;8.00;99.90;;;;;;2092475;28;20021;-84
2021/03/04 01:56:05;;;;;;;98.78;69.35;;;8.00;99.90;;;;;;2085893;28;20080;-80
2021/03/04 01:57:06;;;;;;;100.53;69.47;;;8.00;99.90;;;;;;2075456;28;20018;-82
2021/03/04 01:58:07;;;;;;;95.40;67.68;;;8.10;99.90;;;;;;2075272;28;20026;-80
2021/03/04 01:59:07;;;;;;;103.30;69.15;;;8.10;99.90;;;;;;2080792;28;20189;-80
2021/03/04 02:00:10;;;;;;;90.90;65.68;;;8.10;99.90;;;;;;2089611;28;20399;-80
2021/03/04 02:01:11;;;;;;;98.93;66.30;;;8.10;99.90;;;;;;2081611;28;20033;-80
2021/03/04 02:02:12;;;;;;;98.53;70.03;;;8.10;99.90;;;;;;2075976;28;20068;-80
2021/03/04 02:03:13;;;;;;;96.70;67.53;;;8.10;99.90;;;;;;2077473;28;20033;-80
2021/03/04 02:04:14;;;;;;;98.43;68.57;;;8.10;99.90;;;;;;2081005;28;20053;-80
2021/03/04 02:05:16;;;;;;;96.88;67.20;;;8.10;99.90;;;;;;2088679;28;20360;-80
2021/03/04 02:06:20;;;;;;;101.65;66.53;;;8.20;99.90;;;;;;2081986;28;20029;-82
2021/03/04 02:07:58;;;;;;;86.97;61.08;;;8.10;99.90;;;;;;2075251;28;20041;-83
2021/03/04 02:09:02;;;;;;;89.32;62.13;;;8.10;99.90;;;;;;2067902;28;20041;-83
2021/03/04 02:10:13;;;;;;;89.68;63.35;;;8.10;99.90;;;;;;2082653;28;20570;-82
2021/03/04 02:11:26;;;;;;;94.82;63.67;;;8.20;99.90;;;;;;2075821;28;20050;-83
2021/03/04 02:12:54;;;;;;;87.63;63.90;;;8.20;99.90;;;;;;2079843;28;20044;-81
2021/03/04 02:14:07;;;;;;;88.82;63.90;;;8.10;99.90;;;;;;2081942;28;20391;-82
2021/03/04 02:15:14;;;;;;;87.15;62.42;;;8.20;99.90;;;;;;2081864;28;20037;-82
2021/03/04 02:16:22;;;;;;;84.90;60.58;;;8.20;99.90;;;;;;2081627;28;20026;-81
2021/03/04 02:17:27;;;;;;;88.30;63.78;;;8.20;99.90;;;;;;2081695;28;20041;-82
2021/03/04 02:18:33;;;;;;;84.05;62.35;;;8.20;99.90;;;;;;2081645;28;20032;-78
2021/03/04 02:19:44;;;;;;;83.45;59.90;;;8.20;99.90;;;;;;2083851;28;20034;-78
2021/03/04 02:21:14;;;;;;;86.15;61.15;;;8.20;99.90;;;;;;2082002;28;20030;-78
2021/03/04 02:22:18;;;;;;;;;;;8.20;99.90;;;;;;2079532;28;20124;-79
2021/03/04 02:23:39;;;;;;;89.30;60.53;;;8.10;99.90;;;;;;2086041;28;19912;-78
2021/03/04 02:25:10;;;;;;;85.03;59.97;;;8.10;99.90;;;;;;2086568;28;20037;-78
2021/03/04 02:26:48;;;;;;;85.53;61.65;;;8.20;99.90;;;;;;2089734;28;20041;-81
2021/03/04 02:27:51;;;;;;;91.50;62.05;;;8.10;99.90;;;;;;2078538;28;20027;-81
2021/03/04 02:28:56;;;;;;;86.97;62.58;;;8.20;99.90;;;;;;2073302;28;20022;-81
2021/03/04 02:30:04;;;;;;;84.72;59.13;;;8.20;99.90;;;;;;2081695;28;20026;-80
2021/03/04 02:31:08;;;;;;;91.72;61.92;;;8.20;99.90;;;;;;2074000;28;20029;-80
2021/03/04 02:32:10;;;;;;;84.90;61.30;;;8.30;99.90;;;;;;2072894;28;20489;-81
2021/03/04 02:33:19;;;;;;;91.30;59.63;;;8.20;99.90;;;;;;2080243;28;20032;-81
2021/03/04 02:34:22;;;;;;;88.82;60.08;;;8.30;99.90;;;;;;2080771;28;20037;-80
2021/03/04 02:35:27;;;;;;;85.32;60.95;;;8.30;99.90;;;;;;2072700;28;20037;-81
2021/03/04 02:36:29;;;;;;;83.00;61.50;;;8.30;99.90;;;;;;2081161;28;20029;-81
2021/03/04 02:37:32;;;;;;;87.03;61.67;;;8.30;99.90;;;;;;2080326;28;20057;-81
2021/03/04 02:38:34;;;;;;;88.15;61.28;;;8.30;99.90;;;;;;2079333;28;20546;-81
2021/03/04 02:39:36;;;;;;;82.90;59.90;;;8.30;99.90;;;;;;2080179;28;20033;-81
2021/03/04 02:40:38;;;;;;;83.22;60.58;;;8.30;99.90;;;;;;2080823;28;20675;-81
2021/03/04 02:41:39;;;;;;;87.28;61.72;;;8.30;99.90;;;;;;2080964;28;20407;-80
2021/03/04 02:42:41;;;;;;;91.20;61.05;;;8.30;99.90;;;;;;2080943;28;20021;-80
2021/03/04 02:43:42;;;;;;;83.15;59.47;;;8.30;99.90;;;;;;2072214;28;20145;-81
2021/03/04 02:44:44;;;;;;;91.95;61.53;;;8.30;99.90;;;;;;2080476;28;20030;-82
2021/03/04 02:45:46;;;;;;;81.45;57.92;;;8.30;99.90;;;;;;2083703;28;20021;-82
2021/03/04 02:46:48;;;;;;;85.45;58.80;;;8.30;99.90;;;;;;2091669;28;20091;-84
2021/03/04 02:47:50;;;;;;;86.20;58.55;;;8.40;99.90;;;;;;2083897;28;20028;-83
2021/03/04 02:48:50;;;;;;;83.38;59.30;;;8.40;99.90;;;;;;2083890;28;20435;-82
2021/03/04 02:49:52;;;;;;;88.63;60.22;;;8.40;99.90;;;;;;2083935;28;20045;-81
2021/03/04 02:50:54;;;;;;;84.88;59.10;;;8.40;99.90;;;;;;2085718;28;20022;-80
2021/03/04 02:51:55;;;;;;;85.80;60.53;;;8.40;99.90;;;;;;2088069;28;20068;-79
2021/03/04 02:52:56;;;;;;;86.53;58.15;;;8.40;99.90;;;;;;2081947;28;20117;-79
2021/03/04 02:53:58;;;;;;;87.80;59.78;;;8.40;99.90;;;;;;2087191;28;20109;-79
2021/03/04 02:55:00;;;;;;;81.70;58.72;;;8.50;99.90;;;;;;2079559;28;20093;-79
2021/03/04 02:56:02;;;;;;;76.95;54.35;;;8.50;99.90;;;;;;2084708;28;20017;-79
2021/03/04 02:57:03;;;;;;;89.07;58.08;;;8.40;99.90;;;;;;2079455;28;20050;-80
2021/03/04 02:58:07;;;;;;;80.97;58.60;;;8.40;99.90;;;;;;2076441;28;20034;-83
2021/03/04 02:59:14;;;;;;;86.20;59.67;;;8.50;99.90;;;;;;2089281;28;20029;-82
2021/03/04 03:00:21;;;;;;;83.03;57.22;;;8.50;99.90;;;;;;2089756;28;20033;-83
2021/03/04 03:01:24;;;;;;;84.57;59.13;;;8.40;99.90;;;;;;2090502;28;20025;-82
2021/03/04 03:02:26;;;;;;;82.32;57.25;;;8.50;99.90;;;;;;2080208;28;20073;-83
2021/03/04 03:03:28;;;;;;;80.18;55.67;;;8.50;99.90;;;;;;2077852;28;20111;-82
2021/03/04 03:04:30;;;;;;;79.15;56.72;;;8.50;99.90;;;;;;2093505;28;20526;-83
2021/03/04 03:05:33;;;;;;;79.35;57.00;;;8.50;99.90;;;;;;2084976;28;20064;-83
2021/03/04 03:06:36;;;;;;;82.93;56.20;;;8.50;99.90;;;;;;2085487;28;20503;-83
2021/03/04 03:07:39;;;;;;;80.40;55.63;;;8.50;99.90;;;;;;2084147;28;20029;-80
2021/03/04 03:08:40;;;;;;;87.80;58.10;;;8.50;99.90;;;;;;2083422;28;20068;-83
2021/03/04 03:09:44;;;;;;;81.53;57.63;;;8.50;99.90;;;;;;2084992;28;20468;-81
2021/03/04 03:10:46;;;;;;;81.90;58.42;;;8.50;99.90;;;;;;2076491;28;20056;-80
2021/03/04 03:11:46;;;;;;;83.78;57.03;;;8.50;99.90;;;;;;2078690;28;20034;-79
2021/03/04 03:12:48;;;;;;;83.95;58.55;;;8.50;99.90;;;;;;2084822;28;20089;-82
2021/03/04 03:13:50;;;;;;;80.03;55.80;;;8.60;99.90;;;;;;2087596;28;20036;-82
2021/03/04 03:14:51;;;;;;;79.43;56.13;;;8.60;99.90;;;;;;2076963;28;20022;-82
2021/03/04 03:15:52;;;;;;;86.05;57.83;;;8.60;99.90;;;;;;2077365;28;20101;-81
2021/03/04 03:16:52;;;;;;;77.00;53.83;;;8.60;99.90;;;;;;2084959;28;20017;-82
2021/03/04 03:17:54;;;;;;;80.53;55.50;;;8.60;99.90;;;;;;2085311;28;20026;-82
2021/03/04 03:18:55;;;;;;;79.63;55.13;;;8.60;99.90;;;;;;2084411;28;20026;-83
2021/03/04 03:19:55;;;;;;;82.38;55.78;;;8.60;99.90;;;;;;2083672;28;20021;-83
2021/03/04 03:20:56;;;;;;;82.18;55.10;;;8.60;99.90;;;;;;2085065;28;20082;-82
2021/03/04 03:21:57;;;;;;;73.35;52.55;;;8.60;99.90;;;;;;2094456;28;20017;-83
2021/03/04 03:22:58;;;;;;;74.50;53.67;;;8.60;99.90;;;;;;2084192;28;20033;-82
2021/03/04 03:23:59;;;;;;;75.25;54.13;;;8.60;99.90;;;;;;2084511;28;20140;-82
2021/03/04 03:25:00;;;;;;;79.53;55.45;;;8.60;99.90;;;;;;2084276;28;20152;-83
2021/03/04 03:26:01;;;;;;;77.72;53.83;;;8.70;99.90;;;;;;2077371;28;20029;-81
2021/03/04 03:27:02;;;;;;;76.35;53.13;;;8.70;99.90;;;;;;2076769;28;20046;-82
2021/03/04 03:28:03;;;;;;;78.55;54.60;;;8.70;99.90;;;;;;2085902;28;20033;-82
2021/03/04 03:29:05;;;;;;;80.47;53.03;;;8.70;99.90;;;;;;2085041;28;20141;-82
2021/03/04 03:30:10;;;;;;;76.43;55.10;;;8.70;99.90;;;;;;2079391;28;20388;-82
2021/03/04 03:31:12;;;;;;;73.88;53.15;;;8.70;99.90;;;;;;2078398;28;20021;-83
2021/03/04 03:32:13;;;;;;;76.22;54.67;;;8.70;99.90;;;;;;2093468;28;20087;-81
2021/03/04 03:33:18;;;;;;;77.30;55.15;;;8.70;99.90;;;;;;2090073;28;20029;-84
2021/03/04 03:34:18;;;;;;;78.22;55.85;;;8.70;99.90;;;;;;2093546;28;20282;-82
2021/03/04 03:35:20;;;;;;;81.55;54.72;;;8.70;99.90;;;;;;2085700;28;20045;-84
2021/03/04 03:36:22;;;;;;;75.63;52.67;;;8.70;99.90;;;;;;2085196;28;20034;-83
2021/03/04 03:37:23;;;;;;;77.07;55.58;;;8.70;99.90;;;;;;2084869;28;20033;-82
2021/03/04 03:38:26;;;;;;;76.05;53.80;;;8.70;99.90;;;;;;2083924;28;20059;-84
2021/03/04 03:39:27;;;;;;;73.88;52.85;;;8.70;99.90;;;;;;2085475;28;20021;-83
2021/03/04 03:40:30;;;;;;;79.22;55.30;;;8.70;99.90;;;;;;2085395;28;20041;-79
2021/03/04 03:41:32;;;;;;;75.28;54.20;;;8.70;99.90;;;;;;2091167;28;20084;-81
2021/03/04 03:42:36;;;;;;;79.60;54.05;;;8.70;99.90;;;;;;2081440;28;20025;-80
2021/03/04 03:43:38;;;;;;;75.75;52.53;;;8.70;99.90;;;;;;2081619;28;20080;-81
2021/03/04 03:44:38;;;;;;;78.18;54.47;;;8.70;99.90;;;;;;2081431;28;20416;-80
2021/03/04 03:45:48;;;;;;;78.55;53.35;;;8.70;99.90;;;;;;2080127;28;20071;-79
2021/03/04 03:46:51;;;;;;;76.65;54.17;;;8.70;99.90;;;;;;2074473;28;20052;-81
2021/03/04 03:47:53;;;;;;;76.30;53.75;;;8.70;99.90;;;;;;2073346;28;20057;-80
2021/03/04 03:48:54;;;;;;;75.75;54.65;;;8.70;99.90;;;;;;2073006;28;20029;-81
2021/03/04 03:49:56;;;;;;;75.22;53.60;;;8.70;99.90;;;;;;2081355;28;20099;-80
2021/03/04 03:50:58;;;;;;;74.47;51.90;;;8.70;99.90;;;;;;2084999;28;20364;-81
2021/03/04 03:52:01;;;;;;;80.15;55.22;;;8.70;99.90;;;;;;2087811;28;20518;-83
2021/03/04 03:53:03;;;;;;;79.60;52.55;;;8.70;99.90;;;;;;2085759;28;20032;-83
2021/03/04 03:54:05;;;;;;;76.20;52.45;;;8.70;99.90;;;;;;2081687;28;20049;-83
2021/03/04 03:55:08;;;;;;;77.65;55.13;;;8.70;99.90;;;;;;2085464;28;20018;-83
2021/03/04 03:56:10;;;;;;;76.45;55.33;;;8.70;99.90;;;;;;2083870;28;20051;-81
2021/03/04 03:57:13;;;;;;;77.65;54.38;;;8.70;99.90;;;;;;2074976;28;20045;-80
2021/03/04 03:58:16;;;;;;;76.13;54.47;;;8.70;99.90;;;;;;2080248;28;20040;-81
2021/03/04 03:59:17;;;;;;;80.55;53.10;;;8.70;99.90;;;;;;2081351;28;20028;-80
2021/03/04 04:00:24;;;;;;;78.38;54.75;;;8.70;99.90;;;;;;2079582;28;20030;-80
2021/03/04 04:01:28;;;;;;;84.57;56.92;;;8.70;99.90;;;;;;2073999;28;20053;-80
2021/03/04 04:02:30;;;;;;;80.50;54.75;;;8.70;99.90;;;;;;2077463;28;20022;-81
2021/03/04 04:03:31;;;;;;;77.75;55.88;;;8.70;99.90;;;;;;2086973;28;20021;-81
2021/03/04 04:04:32;;;;;;;79.80;56.28;;;8.70;99.90;;;;;;2088313;28;20487;-80
2021/03/04 04:05:33;;;;;;;82.97;57.25;;;8.70;99.90;;;;;;2080069;28;20037;-79
2021/03/04 04:06:33;;;;;;;77.13;55.42;;;8.70;99.90;;;;;;2087852;28;20057;-80
2021/03/04 04:07:34;;;;;;;79.13;56.20;;;8.70;99.90;;;;;;2080566;28;20164;-80
2021/03/04 04:08:35;;;;;;;79.85;57.00;;;8.70;99.90;;;;;;2084999;28;20029;-81
2021/03/04 04:09:37;;;;;;;82.45;58.92;;;8.70;99.90;;;;;;2072322;28;20076;-80
2021/03/04 04:10:38;;;;;;;87.22;57.60;;;8.70;99.90;;;;;;2077484;28;20400;-81
2021/03/04 04:11:39;;;;;;;76.63;55.85;;;8.60;99.90;;;;;;2079061;28;20025;-80
2021/03/04 04:12:39;;;;;;;81.53;57.33;;;8.60;99.90;;;;;;2079602;28;20083;-80
2021/03/04 04:13:40;;;;;;;82.88;56.75;;;8.60;99.90;;;;;;2080033;28;20018;-80
2021/03/04 04:14:41;;;;;;;78.53;55.97;;;8.60;99.90;;;;;;2079601;28;20030;-79
2021/03/04 04:15:42;;;;;;;81.03;56.65;;;8.60;99.90;;;;;;2078943;28;20026;-81
2021/03/04 04:16:43;;;;;;;77.80;56.13;;;8.60;99.90;;;;;;2074368;28;20036;-80
2021/03/04 04:17:44;;;;;;;77.13;54.03;;;8.60;99.90;;;;;;2080098;28;20025;-80
2021/03/04 04:18:46;;;;;;;80.50;55.30;;;8.60;99.90;;;;;;2071233;28;20628;-80
2021/03/04 04:19:48;;;;;;;80.82;54.97;;;8.60;99.90;;;;;;2080654;28;20049;-80
2021/03/04 04:20:50;;;;;;;81.13;55.75;;;8.60;99.90;;;;;;2079233;28;20029;-80
2021/03/04 04:21:51;;;;;;;82.75;56.00;;;8.60;99.90;;;;;;2072165;28;20033;-81
2021/03/04 04:22:53;;;;;;;79.22;55.80;;;8.60;99.90;;;;;;2079414;28;20025;-81
2021/03/04 04:23:54;;;;;;;77.00;56.40;;;8.50;99.90;;;;;;2079818;28;20021;-81
2021/03/04 04:24:57;;;;;;;78.45;55.63;;;8.50;99.90;;;;;;2079752;28;20021;-80
2021/03/04 04:25:58;;;;;;;82.35;56.92;;;8.50;99.90;;;;;;2080203;28;20526;-81
2021/03/04 04:26:59;;;;;;;80.55;56.45;;;8.50;99.90;;;;;;2079656;28;20136;-81
2021/03/04 04:27:59;;;;;;;78.63;55.13;;;8.50;99.90;;;;;;2081941;28;20591;-81
2021/03/04 04:29:00;;;;;;;81.50;54.75;;;8.50;99.90;;;;;;2079723;28;20025;-81
2021/03/04 04:30:01;;;;;;;74.97;53.65;;;8.50;99.90;;;;;;2082997;28;20056;-80
2021/03/04 04:31:01;;;;;;;76.28;53.40;;;8.50;99.90;;;;;;2071976;28;20076;-81
2021/03/04 04:32:02;;;;;;;72.47;53.03;;;8.50;99.90;;;;;;2088622;28;20028;-80
2021/03/04 04:33:03;;;;;;;72.90;51.22;;;8.50;99.90;;;;;;2075486;28;20034;-80
2021/03/04 04:34:04;;;;;;;66.93;49.10;;;8.50;99.90;;;;;;2071838;28;20617;-81
2021/03/04 04:35:05;;;;;;;71.13;48.15;;;8.40;99.90;;;;;;2078782;28;20108;-82
2021/03/04 04:36:06;;;;;;;81.40;54.88;;;8.40;99.90;;;;;;2079528;28;20074;-82
2021/03/04 04:37:07;;;;;;;71.63;50.78;;;8.40;99.90;;;;;;2071752;28;20451;-80
2021/03/04 04:38:08;;;;;;;68.00;47.88;;;8.50;99.90;;;;;;2076991;28;20053;-80
2021/03/04 04:39:09;;;;;;;64.97;48.40;;;8.50;99.90;;;;;;2079587;28;20064;-80
2021/03/04 04:40:10;;;;;;;75.35;52.83;;;8.40;99.90;;;;;;2080142;28;20099;-80
2021/03/04 04:41:11;;;;;;;64.15;47.35;;;8.40;99.90;;;;;;2088378;28;20062;-80
2021/03/04 04:42:12;;;;;;;58.67;41.00;;;8.40;99.90;;;;;;2085396;28;20025;-81
2021/03/04 04:43:13;;;;;;;72.20;51.17;;;8.40;99.90;;;;;;2077784;28;20057;-82
2021/03/04 04:44:13;;;;;;;73.05;53.72;;;8.40;99.90;;;;;;2077175;28;20369;-84
2021/03/04 04:45:14;;;;;;;83.53;56.17;;;8.40;99.90;;;;;;2077037;28;20411;-82
2021/03/04 04:46:15;;;;;;;75.18;53.60;;;8.40;99.90;;;;;;2089418;28;20036;-80
2021/03/04 04:47:16;;;;;;;81.97;55.10;;;8.40;99.90;;;;;;2092562;28;20443;-83
2021/03/04 04:48:16;;;;;;;73.47;52.75;;;8.40;99.90;;;;;;2076726;28;20021;-84
2021/03/04 04:49:17;;;;;;;79.03;53.88;;;8.40;99.90;;;;;;2089765;28;20047;-82
2021/03/04 04:50:18;;;;;;;73.65;54.30;;;8.40;99.90;;;;;;2102881;28;20028;-82
2021/03/04 04:51:19;;;;;;;76.78;52.78;;;8.30;99.90;;;;;;2093604;28;20036;-81
2021/03/04 04:52:19;;;;;;;76.82;53.05;;;8.40;99.90;;;;;;2088620;28;20044;-84
2021/03/04 04:53:20;;;;;;;75.32;54.33;;;8.40;99.90;;;;;;2085946;28;20026;-82
2021/03/04 04:54:21;;;;;;;74.72;52.65;;;8.30;99.90;;;;;;2090508;28;20027;-81
2021/03/04 04:55:22;;;;;;;71.03;50.83;;;8.40;99.90;;;;;;2093757;28;20051;-78
2021/03/04 04:56:23;;;;;;;72.05;49.20;;;8.40;99.90;;;;;;2082851;28;20542;-79
2021/03/04 04:57:25;;;;;;;79.50;53.53;;;8.40;99.90;;;;;;2090387;28;20061;-80
2021/03/04 04:58:25;;;;;;;76.80;54.85;;;8.40;99.90;;;;;;2081141;28;20032;-80
2021/03/04 04:59:26;;;;;;;79.75;54.40;;;8.40;99.90;;;;;;2078288;28;20025;-80
2021/03/04 05:00:26;;;;;;;80.95;56.40;;;8.30;99.90;;;;;;2077647;28;20128;-81
2021/03/04 05:01:27;;;;;;;73.10;51.90;;;8.30;99.90;;;;;;2077512;28;20021;-80
2021/03/04 05:02:28;;;;;;;75.18;53.45;;;8.30;99.90;;;;;;2075248;28;20428;-81
2021/03/04 05:03:28;;;;;;;79.32;54.72;;;8.30;99.90;;;;;;2077969;28;20093;-80
2021/03/04 05:04:29;;;;;;;80.82;56.90;;;8.30;99.90;;;;;;2079431;28;20388;-80
2021/03/04 05:05:30;;;;;;;80.85;53.70;;;8.30;99.90;;;;;;2078074;28;20037;-80
2021/03/04 05:06:30;;;;;;;80.90;55.03;;;8.30;99.90;;;;;;2080008;28;20407;-80
2021/03/04 05:07:31;;;;;;;84.45;57.35;;;8.30;99.90;;;;;;2078657;28;20049;-80
2021/03/04 05:08:31;;;;;;;81.68;56.25;;;8.30;99.90;;;;;;2071784;28;20566;-81
2021/03/04 05:09:32;;;;;;;85.25;57.30;;;8.30;99.90;;;;;;2073394;28;20192;-80
2021/03/04 05:10:33;;;;;;;83.13;56.72;;;8.30;99.90;;;;;;2087200;28;20029;-80
2021/03/04 05:11:34;;;;;;;82.90;56.17;;;8.30;99.90;;;;;;2081810;28;20153;-80
2021/03/04 05:12:36;;;;;;;81.82;54.03;;;8.30;99.90;;;;;;2073902;28;20045;-81
2021/03/04 05:13:37;;;;;;;80.85;54.58;;;8.30;99.90;;;;;;2081811;28;20265;-80
2021/03/04 05:14:37;;;;;;;78.50;56.03;;;8.30;99.90;;;;;;2082075;28;20021;-80
2021/03/04 05:15:38;;;;;;;80.20;54.13;;;8.30;99.90;;;;;;2073182;28;20108;-80
2021/03/04 05:16:39;;;;;;;82.75;54.85;;;8.20;99.90;;;;;;2078246;28;20025;-80
2021/03/04 05:17:40;;;;;;;80.53;55.20;;;8.20;99.90;;;;;;2073520;28;20048;-80
2021/03/04 05:18:40;;;;;;;85.50;56.45;;;8.20;99.90;;;;;;2082124;28;20021;-80